ダブリン の空港の天気 - METARとTAF

ダブリン空港 ( EIDW / DUB ) - アイルランド ダブリン
飛行場実況気象(Metar)
観測時間03/28 22:00 IST (03/28 21:00 UTC)
風向・風速南 5m/s
視程10km以上
天気現象
少しの雲 雲底高度 550m
全天の8割程度の雲 雲底高度 1220m
全天の8割程度の雲 雲底高度 1830m
気温10℃
湿度82%
気圧1013hPa
METAREIDW 282100Z 19009KT 9999 FEW018 BKN040 BKN060 10/07 Q1013 NOSIG
過去の天気等 Google飛行場航空写真 Wunderground天気予報

過去48時間のMETAR

飛行場予報(TAF)
発表時間: 3/28 18:00 IST (3/28 17:00 UTC)
予報対象時間: 28日19時 IST ~ 29日19時 IST
風向・風速南南西 6m/s
視程10km以上
少しの雲 雲底高度 210m
全天の8割程度の雲 雲底高度 610m
28日20時 IST ~ 28日23時 IST に徐々に
風向・風速南南東 5m/s
28日22時 IST ~ 29日19時 IST に一時的に
視程5,000m
天気現象弱い雨 もや
全天の8割程度の雲 雲底高度 370m
29日0時 IST ~ 29日13時 IST に 確率 30% で一時的に
視程3,000m
全天の8割程度の雲 雲底高度 210m
29日0時 IST ~ 29日2時 IST に徐々に
風向・風速南南西 4m/s
29日5時 IST ~ 29日7時 IST に徐々に
風向・風速南南東 5m/s
29日16時 IST ~ 29日19時 IST に徐々に
風向・風速南南西 5m/s
TAF EIDW 281700Z 2818/2918 20012KT 9999 FEW007 BKN020
BECMG 2819/2822 15010KT
TEMPO 2821/2918 5000 -RA BR BKN012
PROB30 TEMPO 2823/2912 3000 BKN007
BECMG 2823/2901 21008KT
BECMG 2904/2906 15010KT
BECMG 2915/2918 21010KT